Time;durP1;ratioP1;P1;durP2;ratioP2;P2;SDS_P1;SDS_P2;PMS_P1;PMS_P2;Temp;Humidity;BMP_temperature;BMP_pressure;BME280_temperature;BME280_humidity;BME280_pressure;Samples;Min_cycle;Max_cycle;Signal;HPM_P1;HPM_P2
2021/09/18 00:01:57;;;;;;;17.77;6.28;;;;;;;26.12;56.39;100912.98;1773110;80;20985;-50
2021/09/18 00:04:23;;;;;;;12.07;7.35;;;;;;;26.13;56.60;100906.70;1773228;80;21018;-52
2021/09/18 00:06:50;;;;;;;18.77;7.30;;;;;;;26.13;56.60;100906.70;1772019;80;21006;-52
2021/09/18 00:09:17;;;;;;;12.58;6.78;;;;;;;26.13;56.84;100902.70;1769984;80;21071;-48
2021/09/18 00:11:46;;;;;;;16.02;6.85;;;;;;;26.13;57.22;100898.19;1769916;80;21502;-55
2021/09/18 00:14:13;;;;;;;13.20;6.60;;;;;;;26.15;57.30;100906.08;1772179;80;21041;-50
2021/09/18 00:16:40;;;;;;;16.70;7.17;;;;;;;26.15;57.33;100899.41;1771671;80;21018;-50
2021/09/18 00:19:06;;;;;;;15.48;7.58;;;;;;;26.14;57.45;100897.70;1771083;80;21022;-54
2021/09/18 00:21:35;;;;;;;20.62;7.90;;;;;;;26.14;57.54;100899.89;1769932;80;21109;-51
2021/09/18 00:24:02;;;;;;;18.00;7.95;;;;;;;26.14;57.49;100895.03;1770262;80;21080;-49
2021/09/18 00:26:32;;;;;;;16.05;7.08;;;;;;;26.13;57.01;100898.19;1772235;80;21029;-51
2021/09/18 00:29:03;;;;;;;16.32;7.20;;;;;;;26.12;56.52;100888.98;1772771;80;21057;-51
2021/09/18 00:31:31;;;;;;;11.70;6.58;;;;;;;26.12;56.52;100888.98;1773386;80;21500;-51
2021/09/18 00:33:59;;;;;;;12.25;6.83;;;;;;;26.12;56.05;100895.66;1772853;80;21045;-53
2021/09/18 00:36:28;;;;;;;15.60;6.80;;;;;;;26.10;55.27;100891.80;1773074;80;21057;-52
2021/09/18 00:38:56;;;;;;;21.42;7.95;;;;;;;26.10;55.27;100891.80;1773022;80;20998;-49
2021/09/18 00:41:23;;;;;;;18.50;7.62;;;;;;;26.06;55.63;100879.66;1770559;80;20983;-50
2021/09/18 00:43:53;;;;;;;13.53;7.10;;;;;;;26.06;55.63;100879.66;1770211;80;21036;-49
2021/09/18 00:46:19;;;;;;;21.95;7.92;;;;;;;26.04;56.37;100879.42;1779895;80;21006;-49
2021/09/18 00:48:47;;;;;;;22.93;7.92;;;;;;;26.05;56.75;100875.80;1781203;80;21029;-51
2021/09/18 00:51:17;;;;;;;22.05;7.58;;;;;;;26.04;57.01;100874.09;1780156;80;20983;-52
2021/09/18 00:53:44;;;;;;;15.45;7.33;;;;;;;26.00;57.63;100856.17;1780331;80;21005;-53
2021/09/18 00:56:12;;;;;;;17.85;7.50;;;;;;;26.01;57.90;100866.36;1762036;80;21029;-48
2021/09/18 00:58:40;;;;;;;18.85;8.10;;;;;;;26.01;58.25;100861.03;1752610;80;21132;-48
2021/09/18 01:01:08;;;;;;;17.12;7.60;;;;;;;26.01;58.77;100851.70;1755160;80;21505;-52
2021/09/18 01:03:35;;;;;;;15.98;7.47;;;;;;;26.01;58.77;100851.70;1755800;80;21037;-48
2021/09/18 01:06:02;;;;;;;11.85;7.00;;;;;;;26.01;58.71;100853.85;1756044;80;21022;-47
2021/09/18 01:08:29;;;;;;;14.65;8.10;;;;;;;26.01;58.38;100851.70;1755910;80;21010;-51
2021/09/18 01:10:58;;;;;;;17.48;8.53;;;;;;;26.00;58.25;100845.98;1755627;80;21037;-48
2021/09/18 01:13:26;;;;;;;17.75;8.28;;;;;;;26.00;58.21;100837.99;1754142;80;21615;-49
2021/09/18 01:15:54;;;;;;;15.38;7.03;;;;;;;26.02;57.78;100840.04;1756990;81;21058;-48
2021/09/18 01:18:21;;;;;;;12.50;7.00;;;;;;;26.00;57.87;100840.66;1756704;80;21477;-49
2021/09/18 01:20:49;;;;;;;12.35;7.80;;;;;;;26.00;57.87;100839.32;1755829;80;20998;-52
2021/09/18 01:23:21;;;;;;;18.07;7.72;;;;;;;26.00;58.18;100831.33;1756053;80;21355;-49
2021/09/18 01:25:48;;;;;;;13.20;7.90;;;;;;;26.01;58.35;100827.19;1685804;84;21490;-49
2021/09/18 01:28:16;;;;;;;15.28;7.55;;;;;;;26.02;58.50;100828.04;1686189;84;21558;-51
2021/09/18 01:30:45;;;;;;;18.82;7.87;;;;;;;26.02;58.15;100831.56;1683780;84;21062;-51
2021/09/18 01:33:12;;;;;;;14.68;6.90;;;;;;;26.02;58.15;100831.56;1683267;84;21037;-52
2021/09/18 01:35:40;;;;;;;19.35;8.08;;;;;;;26.01;58.49;100824.52;1683092;84;21038;-53
2021/09/18 01:38:07;;;;;;;13.68;7.78;;;;;;;26.00;58.43;100813.99;1692440;84;21589;-50
2021/09/18 01:40:39;;;;;;;14.95;7.37;;;;;;;26.00;58.43;100813.99;1684577;84;21049;-50
2021/09/18 01:43:07;;;;;;;16.67;8.38;;;;;;;25.99;58.78;100813.65;1687603;84;21556;-50
2021/09/18 01:45:34;;;;;;;15.93;8.50;;;;;;;26.00;58.31;100816.66;1676822;85;21062;-54
2021/09/18 01:48:07;;;;;;;13.85;7.10;;;;;;;25.99;58.65;100820.31;1676980;85;21022;-54
2021/09/18 01:53:17;;;;;;;15.53;7.85;;;;;;;25.98;58.57;100814.61;1601923;89;21075;-48
2021/09/18 01:55:44;;;;;;;17.12;7.55;;;;;;;25.97;58.76;100807.57;1601921;89;21041;-54
2021/09/18 01:58:11;;;;;;;12.58;8.08;;;;;;;25.96;58.31;100803.23;1601894;89;21057;-48
2021/09/18 02:00:43;;;;;;;20.27;8.95;;;;;;;25.96;58.31;100803.23;1601994;89;21565;-49
2021/09/18 02:03:10;;;;;;;17.23;7.97;;;;;;;25.96;58.59;100801.90;1577454;89;21138;-51
2021/09/18 02:05:38;;;;;;;12.88;7.78;;;;;;;25.95;58.50;100798.86;1577591;89;21069;-49
2021/09/18 02:08:05;;;;;;;18.67;7.20;;;;;;;25.94;58.79;100806.52;1577485;89;21058;-50
2021/09/18 02:10:32;;;;;;;14.78;7.72;;;;;;;25.93;58.85;100793.66;1577561;89;21078;-50
2021/09/18 02:13:04;;;;;;;13.60;7.85;;;;;;;25.93;58.92;100796.81;1577381;89;21114;-49
2021/09/18 02:15:32;;;;;;;16.52;7.47;;;;;;;25.92;59.04;100790.66;1575882;91;21139;-50
2021/09/18 02:18:01;;;;;;;16.75;6.97;;;;;;;25.91;59.43;100790.77;1577431;89;21109;-50
2021/09/18 02:20:29;;;;;;;12.18;7.10;;;;;;;25.90;59.70;100782.42;1577600;89;21494;-52
2021/09/18 02:22:57;;;;;;;17.57;7.75;;;;;;;25.90;59.87;100781.95;1582275;89;21529;-48
2021/09/18 02:25:26;;;;;;;17.55;7.33;;;;;;;25.87;59.95;100771.52;1585105;89;21078;-49
2021/09/18 02:27:52;;;;;;;16.15;7.58;;;;;;;25.88;59.80;100775.05;1585297;89;21041;-52
2021/09/18 02:30:25;;;;;;;15.70;8.28;;;;;;;25.87;59.76;100760.01;1584970;89;21100;-49
2021/09/18 02:32:53;;;;;;;16.70;8.48;;;;;;;25.87;59.76;100760.01;1566195;91;21093;-50
2021/09/18 02:35:21;;;;;;;18.05;8.18;;;;;;;25.88;59.76;100764.38;1567769;91;21097;-49
2021/09/18 02:37:49;;;;;;;18.90;8.60;;;;;;;25.89;59.77;100755.39;1568140;91;21057;-51
2021/09/18 02:40:18;;;;;;;12.63;8.48;;;;;;;25.90;59.79;100758.43;1564522;91;21126;-54
2021/09/18 02:42:49;;;;;;;12.85;6.75;;;;;;;25.90;59.76;100758.43;1570712;91;21549;-52
2021/09/18 02:45:16;;;;;;;13.13;7.37;;;;;;;25.95;59.83;100760.20;1518909;93;21081;-49
2021/09/18 02:47:44;;;;;;;20.30;7.78;;;;;;;25.98;59.63;100751.95;1489562;95;21083;-48
2021/09/18 02:50:13;;;;;;;17.65;7.60;;;;;;;25.98;59.63;100751.95;1517541;93;21082;-49
2021/09/18 02:52:41;;;;;;;13.07;8.20;;;;;;;25.97;59.97;100755.58;1519760;93;21095;-52
2021/09/18 02:55:10;;;;;;;14.50;8.10;;;;;;;25.99;60.03;100749.14;1522009;93;21099;-50
2021/09/18 02:57:39;;;;;;;16.02;7.62;;;;;;;25.98;60.16;100748.80;1530224;93;21105;-50
2021/09/18 03:00:09;;;;;;;18.37;8.55;;;;;;;25.95;60.48;100746.87;1516434;93;21062;-49
2021/09/18 03:02:36;;;;;;;16.97;7.90;;;;;;;25.95;60.65;100752.20;1590089;90;21562;-53
2021/09/18 03:05:05;;;;;;;13.55;7.50;;;;;;;25.95;60.69;100749.05;1586366;90;21083;-48
2021/09/18 03:07:32;;;;;;;18.25;7.65;;;;;;;25.96;60.55;100751.23;1588003;90;21551;-54
2021/09/18 03:10:00;;;;;;;12.03;7.28;;;;;;;25.96;60.46;100752.09;1568303;91;21085;-50
2021/09/18 03:12:27;;;;;;;15.18;7.60;;;;;;;25.97;60.43;100750.25;1576885;90;21099;-49
2021/09/18 03:14:55;;;;;;;16.32;7.75;;;;;;;25.96;60.25;100753.91;1586664;90;21516;-50
2021/09/18 03:17:21;;;;;;;14.90;7.58;;;;;;;25.96;60.21;100751.23;1546532;92;21101;-49
2021/09/18 03:19:51;;;;;;;24.92;8.68;;;;;;;25.95;60.37;100749.53;1586132;90;21071;-53
2021/09/18 03:22:20;;;;;;;17.10;7.72;;;;;;;25.95;60.45;100746.39;1586748;89;21096;-49
2021/09/18 03:24:48;;;;;;;15.50;8.20;;;;;;;26.00;60.38;100742.00;1568421;91;21082;-52
2021/09/18 03:27:16;;;;;;;16.70;7.05;;;;;;;25.96;60.50;100741.42;1587222;90;21060;-50
2021/09/18 03:29:44;;;;;;;18.02;8.08;;;;;;;25.97;60.44;100739.58;1558364;90;21036;-49
2021/09/18 03:32:11;;;;;;;19.35;7.92;;;;;;;25.96;60.50;100729.91;1601565;89;21069;-51
2021/09/18 03:34:38;;;;;;;14.70;6.90;;;;;;;25.97;60.58;100736.91;1600750;89;21058;-50
2021/09/18 03:37:05;;;;;;;18.32;7.05;;;;;;;25.97;60.58;100736.91;1594226;89;21614;-52
2021/09/18 03:39:32;;;;;;;14.58;7.85;;;;;;;25.96;60.53;100729.91;1608000;89;21085;-50
2021/09/18 03:42:00;;;;;;;16.42;7.20;;;;;;;25.97;60.79;100731.58;1629555;86;21036;-50
2021/09/18 03:44:27;;;;;;;13.40;7.70;;;;;;;25.97;60.84;100730.25;1722866;83;21077;-50
2021/09/18 03:46:54;;;;;;;19.70;7.97;;;;;;;25.96;60.97;100725.42;1673825;86;21005;-52
2021/09/18 03:49:21;;;;;;;17.32;7.67;;;;;;;25.98;60.99;100731.95;1720174;83;21521;-50
2021/09/18 03:51:47;;;;;;;15.10;7.60;;;;;;;25.97;61.18;100732.44;1720137;82;20992;-50
2021/09/18 03:54:14;;;;;;;16.15;7.35;;;;;;;25.98;61.24;100734.62;1689249;84;21100;-49
2021/09/18 03:56:42;;;;;;;15.90;7.72;;;;;;;25.99;61.30;100734.48;1696114;83;21557;-50
2021/09/18 03:59:09;;;;;;;23.42;8.10;;;;;;;25.97;61.33;100724.91;1700757;83;21070;-50
2021/09/18 04:01:37;;;;;;;23.42;8.30;;;;;;;25.99;61.38;100718.99;1701171;83;21565;-51
2021/09/18 04:04:05;;;;;;;17.12;6.85;;;;;;;25.99;61.38;100718.99;1697335;83;21027;-51
2021/09/18 04:06:32;;;;;;;14.70;7.37;;;;;;;25.98;61.42;100714.63;1714194;84;21061;-52
2021/09/18 04:08:58;;;;;;;15.08;7.87;;;;;;;25.98;61.40;100710.63;1729697;82;21506;-50
2021/09/18 04:11:25;;;;;;;15.78;7.80;;;;;;;25.97;61.36;100710.25;1710216;83;21099;-55
2021/09/18 04:13:52;;;;;;;15.10;7.35;;;;;;;25.96;61.42;100706.77;1730487;82;21523;-50
2021/09/18 04:16:20;;;;;;;16.45;7.58;;;;;;;25.98;61.47;100711.95;1703896;83;21078;-50
2021/09/18 04:18:48;;;;;;;17.73;7.60;;;;;;;25.98;61.50;100714.63;1714292;83;21011;-53
2021/09/18 04:21:15;;;;;;;15.68;7.45;;;;;;;25.98;61.47;100711.95;1703505;83;21007;-53
2021/09/18 04:23:44;;;;;;;13.50;7.60;;;;;;;25.98;61.59;100715.47;1714019;83;21026;-52
2021/09/18 04:26:12;;;;;;;12.82;7.42;;;;;;;25.98;61.38;100720.80;1707412;83;21035;-51
2021/09/18 04:28:40;;;;;;;17.37;8.13;;;;;;;25.97;61.44;100721.77;1700817;83;21022;-50
2021/09/18 04:31:07;;;;;;;13.55;7.33;;;;;;;25.97;61.51;100723.58;1728697;82;21058;-55
2021/09/18 04:33:34;;;;;;;15.78;7.90;;;;;;;25.97;61.69;100726.25;1702476;83;21051;-51
2021/09/18 04:36:02;;;;;;;19.77;7.17;;;;;;;25.96;61.88;100724.58;1727862;82;21007;-55
2021/09/18 04:38:29;;;;;;;15.83;7.75;;;;;;;25.96;61.96;100724.58;1726748;82;21054;-51
2021/09/18 04:40:55;;;;;;;13.35;7.92;;;;;;;25.97;61.83;100724.44;1726805;82;21054;-51
2021/09/18 04:43:23;;;;;;;14.90;7.97;;;;;;;25.97;61.86;100727.10;1728804;82;21038;-52
2021/09/18 04:45:51;;;;;;;15.83;8.00;;;;;;;25.98;62.02;100719.95;1704188;83;20995;-49
2021/09/18 04:48:18;;;;;;;20.37;8.63;;;;;;;25.99;62.18;100724.33;1714239;84;21022;-55
2021/09/18 04:50:45;;;;;;;18.62;8.83;;;;;;;26.00;62.42;100720.66;1729626;82;21030;-52
2021/09/18 04:53:13;;;;;;;16.60;8.48;;;;;;;26.00;62.42;100720.66;1703520;83;21030;-51
2021/09/18 04:55:41;;;;;;;20.35;8.38;;;;;;;26.02;62.25;100708.90;1714315;83;21019;-49
2021/09/18 04:58:08;;;;;;;16.10;8.70;;;;;;;26.02;62.24;100709.38;1707046;83;21055;-50
2021/09/18 05:00:36;;;;;;;19.02;8.25;;;;;;;26.04;62.32;100708.28;1726919;82;21077;-54
2021/09/18 05:03:03;;;;;;;17.70;8.20;;;;;;;26.05;62.39;100705.13;1705581;84;21051;-49
2021/09/18 05:05:30;;;;;;;16.75;7.70;;;;;;;26.08;62.42;100710.21;1714267;84;21059;-49
2021/09/18 05:07:57;;;;;;;17.75;8.08;;;;;;;26.10;62.39;100712.25;1703537;83;21019;-51
2021/09/18 05:10:24;;;;;;;14.47;6.70;;;;;;;26.10;62.41;100703.77;1726530;82;21474;-52
2021/09/18 05:12:50;;;;;;;15.63;7.90;;;;;;;26.15;62.15;100712.72;1733010;82;21759;-49
2021/09/18 05:15:17;;;;;;;20.20;7.70;;;;;;;26.14;62.01;100710.53;1703596;83;21058;-54
2021/09/18 05:17:45;;;;;;;14.90;7.95;;;;;;;26.27;61.66;100710.31;1714346;84;21095;-51
2021/09/18 05:20:13;;;;;;;14.95;7.62;;;;;;;26.31;61.65;100707.25;1708238;83;21071;-51
2021/09/18 05:22:40;;;;;;;18.75;7.40;;;;;;;26.31;61.65;100707.25;1701127;83;21029;-53
2021/09/18 05:25:09;;;;;;;16.52;7.75;;;;;;;26.23;61.83;100708.89;1700791;83;21071;-49
2021/09/18 05:27:36;;;;;;;16.07;7.37;;;;;;;26.19;61.99;100704.80;1725418;82;21579;-49
2021/09/18 05:30:05;;;;;;;18.98;7.37;;;;;;;26.22;61.82;100715.19;1716847;83;21022;-52
2021/09/18 05:32:32;;;;;;;22.02;8.63;;;;;;;26.22;61.82;100715.19;1716916;83;21003;-50
2021/09/18 05:35:01;;;;;;;18.60;8.75;;;;;;;26.25;61.87;100710.93;1769189;80;21033;-54
2021/09/18 05:37:27;;;;;;;20.37;8.25;;;;;;;26.25;61.87;100710.93;1769100;80;20946;-49
2021/09/18 05:39:54;;;;;;;22.42;9.25;;;;;;;26.27;61.92;100711.64;1768394;80;21026;-53
2021/09/18 05:42:23;;;;;;;23.67;8.45;;;;;;;26.28;61.94;100711.98;1765798;80;21044;-53
2021/09/18 05:44:49;;;;;;;14.43;8.33;;;;;;;26.30;62.02;100708.69;1779577;80;20978;-52
2021/09/18 05:47:16;;;;;;;23.10;8.08;;;;;;;26.33;62.02;100720.44;1764211;80;21061;-50
2021/09/18 05:49:42;;;;;;;18.67;8.13;;;;;;;26.34;61.92;100718.96;1773210;80;21009;-51
2021/09/18 05:52:10;;;;;;;16.00;7.35;;;;;;;26.34;61.84;100716.77;1768865;80;20962;-50
2021/09/18 05:54:37;;;;;;;18.75;9.03;;;;;;;26.38;61.86;100720.86;1775874;80;21052;-48
2021/09/18 05:57:05;;;;;;;15.53;7.62;;;;;;;26.41;61.78;100717.94;1769244;80;21016;-50
2021/09/18 05:59:32;;;;;;;14.15;8.35;;;;;;;26.43;61.37;100708.83;1772647;80;21127;-52
2021/09/18 06:02:01;;;;;;;16.52;7.90;;;;;;;26.45;61.60;100708.69;1774617;80;22073;-51
2021/09/18 06:04:27;;;;;;;18.20;8.45;;;;;;;26.48;61.69;100715.09;1771570;80;20994;-51
2021/09/18 06:06:56;;;;;;;18.45;7.45;;;;;;;26.49;61.68;100711.44;1778153;80;21003;-51
2021/09/18 06:09:23;;;;;;;15.85;7.75;;;;;;;26.51;61.67;100709.47;1767905;80;21021;-50
2021/09/18 06:11:50;;;;;;;23.77;9.00;;;;;;;26.54;61.54;100710.55;1768937;80;21498;-51
2021/09/18 06:14:18;;;;;;;14.20;7.42;;;;;;;26.54;61.54;100710.55;1763686;80;20990;-49
2021/09/18 06:16:46;;;;;;;20.35;8.10;;;;;;;26.55;61.61;100702.88;1769020;80;21041;-51
2021/09/18 06:19:18;;;;;;;25.77;8.08;;;;;;;26.57;61.66;100712.93;1768641;80;20978;-50
2021/09/18 06:21:42;;;;;;;18.23;8.20;;;;;;;26.55;61.61;100717.56;1764544;80;21081;-50
2021/09/18 06:24:11;;;;;;;19.12;8.18;;;;;;;26.57;61.74;100711.59;1766457;80;21028;-52
2021/09/18 06:26:40;;;;;;;21.07;9.20;;;;;;;26.57;61.74;100711.59;1765575;80;21377;-50
2021/09/18 06:29:08;;;;;;;20.08;8.18;;;;;;;26.59;61.99;100704.30;1767937;80;21088;-49
2021/09/18 06:31:36;;;;;;;20.23;8.08;;;;;;;26.62;61.92;100709.38;1781147;80;20991;-52
2021/09/18 06:34:03;;;;;;;16.87;8.18;;;;;;;26.63;61.92;100711.05;1766520;80;21101;-51
2021/09/18 06:36:30;;;;;;;14.75;8.00;;;;;;;26.67;62.01;100711.64;1765281;80;21525;-50
2021/09/18 06:38:57;;;;;;;19.20;7.90;;;;;;;26.67;62.01;100711.64;1764320;80;21590;-51
2021/09/18 06:41:24;;;;;;;21.77;8.28;;;;;;;26.69;61.98;100711.83;1767356;80;21080;-50
2021/09/18 06:43:51;;;;;;;20.52;8.40;;;;;;;26.70;61.92;100718.87;1714448;84;21022;-52
2021/09/18 06:46:18;;;;;;;24.35;8.10;;;;;;;26.71;62.02;100712.54;1735030;82;20991;-52
2021/09/18 06:48:45;;;;;;;17.95;7.45;;;;;;;26.79;61.76;100723.92;1730622;82;21026;-48
2021/09/18 06:51:12;;;;;;;19.80;8.98;;;;;;;26.79;61.76;100723.92;1739448;82;21014;-51
2021/09/18 06:53:39;;;;;;;21.20;8.75;;;;;;;26.79;61.83;100719.91;1727655;82;21078;-51
2021/09/18 06:56:06;;;;;;;17.67;8.40;;;;;;;26.84;61.69;100717.66;1703137;83;21074;-51
2021/09/18 06:58:34;;;;;;;18.85;8.65;;;;;;;26.87;61.42;100717.40;1740397;82;21050;-51
2021/09/18 07:01:02;;;;;;;23.30;8.63;;;;;;;26.88;61.43;100713.73;1744583;82;21022;-50
2021/09/18 07:03:29;;;;;;;24.25;8.90;;;;;;;26.86;61.37;100707.20;1746009;82;21050;-50
2021/09/18 07:05:55;;;;;;;18.92;7.97;;;;;;;26.86;61.37;100707.20;1709678;83;21073;-50
2021/09/18 07:08:22;;;;;;;14.85;7.60;;;;;;;26.89;61.31;100709.61;1716234;83;21062;-50
2021/09/18 07:10:49;;;;;;;19.98;8.25;;;;;;;26.89;61.14;100708.77;1719221;83;21011;-49
2021/09/18 07:13:16;;;;;;;17.17;8.18;;;;;;;26.91;61.36;100710.80;1722095;83;21018;-51
2021/09/18 07:15:44;;;;;;;18.77;8.45;;;;;;;26.96;61.25;100710.73;1721788;83;21065;-49
2021/09/18 07:18:11;;;;;;;18.32;7.72;;;;;;;26.99;61.28;100706.94;1722166;83;21014;-48
2021/09/18 07:20:39;;;;;;;14.50;7.83;;;;;;;26.98;61.33;100704.75;1716478;83;21058;-52
2021/09/18 07:23:06;;;;;;;29.02;8.35;;;;;;;27.01;61.44;100701.82;1721971;83;21022;-50
2021/09/18 07:25:33;;;;;;;11.65;7.33;;;;;;;27.05;61.26;100709.91;1737656;82;21509;-51
2021/09/18 07:28:00;;;;;;;21.48;8.50;;;;;;;27.10;61.38;100708.98;1718995;83;21110;-52
2021/09/18 07:30:28;;;;;;;14.10;7.78;;;;;;;27.10;61.38;100708.98;1721808;83;21042;-49
2021/09/18 07:32:54;;;;;;;14.70;8.63;;;;;;;27.15;61.32;100706.75;1731501;83;21027;-53
2021/09/18 07:35:22;;;;;;;17.30;8.48;;;;;;;27.24;61.02;100705.88;1734592;82;20995;-51
2021/09/18 07:37:50;;;;;;;15.55;7.45;;;;;;;27.30;60.98;100705.34;1734446;81;21046;-49
2021/09/18 07:40:17;;;;;;;16.97;9.15;;;;;;;27.39;60.49;100705.00;1736558;82;21526;-49
2021/09/18 07:42:43;;;;;;;22.13;8.63;;;;;;;27.44;60.25;100703.24;1717552;83;21569;-51
2021/09/18 07:45:12;;;;;;;19.45;7.40;;;;;;;27.50;60.02;100708.02;1716816;83;21049;-48
2021/09/18 07:47:40;;;;;;;18.15;7.47;;;;;;;27.54;59.95;100706.75;1715901;83;21020;-50
2021/09/18 07:50:08;;;;;;;16.95;7.37;;;;;;;27.55;59.70;100698.61;1708291;83;21600;-53
2021/09/18 07:52:35;;;;;;;15.05;8.85;;;;;;;27.56;59.53;100694.94;1736150;82;21006;-49
2021/09/18 07:55:02;;;;;;;16.62;8.00;;;;;;;27.57;59.53;100699.80;1718942;83;21022;-48
2021/09/18 07:57:29;;;;;;;19.27;8.83;;;;;;;27.55;59.44;100687.06;1719078;83;21054;-48
2021/09/18 07:59:55;;;;;;;14.33;8.63;;;;;;;27.53;59.38;100679.20;1703429;83;21077;-50
2021/09/18 08:02:23;;;;;;;20.30;8.38;;;;;;;27.53;59.38;100679.20;1714336;84;21039;-51
2021/09/18 08:04:50;;;;;;;23.47;7.87;;;;;;;27.51;59.37;100682.51;1701948;83;21523;-50
2021/09/18 08:07:21;;;;;;;16.97;7.78;;;;;;;27.50;59.38;100674.61;1714246;84;21043;-53
2021/09/18 08:09:47;;;;;;;18.48;8.55;;;;;;;27.49;59.48;100671.60;1706495;83;21023;-50
2021/09/18 08:12:16;;;;;;;15.25;7.67;;;;;;;27.48;59.63;100669.90;1714004;83;21518;-48
2021/09/18 08:14:43;;;;;;;19.27;7.97;;;;;;;27.52;59.60;100665.95;1729838;82;21023;-50
2021/09/18 08:17:11;;;;;;;13.50;7.60;;;;;;;27.54;59.59;100660.82;1731226;82;21034;-49
2021/09/18 08:19:38;;;;;;;19.05;8.60;;;;;;;27.59;59.47;100663.07;1729132;82;21030;-50
2021/09/18 08:22:06;;;;;;;14.40;7.53;;;;;;;27.63;59.24;100669.81;1703861;83;21090;-49
2021/09/18 08:24:33;;;;;;;18.02;6.90;;;;;;;27.66;59.17;100665.50;1714424;84;21097;-52
2021/09/18 08:27:00;;;;;;;16.23;7.65;;;;;;;27.69;59.24;100670.57;1709718;83;21011;-49
2021/09/18 08:29:27;;;;;;;13.60;7.45;;;;;;;27.72;59.13;100662.28;1711237;83;21023;-49
2021/09/18 08:31:54;;;;;;;18.82;8.03;;;;;;;27.76;59.03;100659.66;1714303;84;21030;-49
2021/09/18 08:34:21;;;;;;;14.75;7.37;;;;;;;27.80;59.00;100654.37;1709690;83;21041;-50
2021/09/18 08:36:48;;;;;;;11.00;7.12;;;;;;;27.85;58.80;100652.08;1714138;84;21526;-48
2021/09/18 08:39:15;;;;;;;12.40;7.53;;;;;;;27.89;58.64;100662.34;1711514;83;21570;-49
2021/09/18 08:41:45;;;;;;;13.90;8.00;;;;;;;27.94;58.51;100667.27;1735215;82;21011;-50
2021/09/18 08:44:12;;;;;;;16.27;8.23;;;;;;;27.96;58.51;100670.19;1677789;85;21520;-50
2021/09/18 08:46:39;;;;;;;16.17;7.20;;;;;;;28.01;58.38;100667.05;1704165;83;21030;-48
2021/09/18 08:49:06;;;;;;;13.03;8.45;;;;;;;28.05;58.24;100661.75;1679006;85;21046;-49
2021/09/18 08:51:33;;;;;;;11.95;6.10;;;;;;;28.09;57.97;100650.61;1678669;85;21070;-51
2021/09/18 08:54:01;;;;;;;16.73;7.00;;;;;;;28.09;57.97;100650.61;1667798;85;21034;-48
2021/09/18 08:56:27;;;;;;;11.90;6.25;;;;;;;28.11;57.70;100647.77;1677711;85;21534;-50
2021/09/18 08:58:54;;;;;;;14.80;7.12;;;;;;;28.08;57.68;100649.43;1666040;85;21059;-49
2021/09/18 09:01:21;;;;;;;17.40;7.20;;;;;;;28.08;57.64;100658.79;1678966;85;21087;-53
2021/09/18 09:03:58;;;;;;;12.18;7.08;;;;;;;28.03;57.65;100649.02;1733951;82;21019;-49
2021/09/18 09:06:26;;;;;;;15.60;7.90;;;;;;;27.97;57.61;100629.54;1728555;82;21047;-52
2021/09/18 09:08:58;;;;;;;13.05;6.50;;;;;;;27.91;57.73;100607.37;1725851;82;21015;-49
2021/09/18 09:11:29;;;;;;;12.37;7.20;;;;;;;27.86;57.79;100601.12;1674949;85;21078;-50
2021/09/18 09:14:08;;;;;;;14.53;7.20;;;;;;;27.81;58.04;100606.57;1673890;85;21566;-51
2021/09/18 09:16:36;;;;;;;16.35;7.70;;;;;;;27.74;58.38;100607.64;1680524;85;21035;-50
2021/09/18 09:19:17;;;;;;;13.85;6.42;;;;;;;27.67;58.65;100608.38;1672242;85;21591;-51
2021/09/18 09:21:53;;;;;;;11.78;7.55;;;;;;;27.61;58.86;100616.98;1679174;85;21598;-51
2021/09/18 09:24:24;;;;;;;13.45;7.75;;;;;;;27.46;59.46;100638.47;1623087;88;21078;-51
2021/09/18 09:27:12;;;;;;;17.55;7.65;;;;;;;27.46;59.46;100638.47;1590994;89;21027;-51
2021/09/18 09:29:47;;;;;;;14.78;7.62;;;;;;;27.41;59.75;100642.08;1598641;89;21042;-52
2021/09/18 09:32:33;;;;;;;14.40;7.00;;;;;;;27.32;60.13;100641.92;1515997;94;21110;-50
2021/09/18 09:35:09;;;;;;;15.70;7.03;;;;;;;27.26;60.44;100653.18;1514566;94;21163;-51
2021/09/18 09:37:37;;;;;;;16.75;7.25;;;;;;;27.18;60.71;100650.86;1517949;94;21111;-50
2021/09/18 09:40:07;;;;;;;14.80;7.80;;;;;;;27.13;61.10;100639.27;1514301;94;21650;-52
2021/09/18 09:42:41;;;;;;;15.85;7.05;;;;;;;27.10;61.11;100632.85;1492620;95;21546;-51
2021/09/18 09:45:16;;;;;;;14.75;7.90;;;;;;;27.06;61.35;100637.31;1489451;96;21130;-51
2021/09/18 09:47:45;;;;;;;14.53;8.28;;;;;;;27.01;61.64;100639.55;1461639;98;21621;-52
2021/09/18 09:50:13;;;;;;;17.70;8.48;;;;;;;26.96;61.86;100657.31;1461370;97;21122;-52
2021/09/18 09:52:42;;;;;;;19.65;8.83;;;;;;;26.95;61.89;100662.32;1461450;96;21198;-52
2021/09/18 09:55:14;;;;;;;22.17;9.13;;;;;;;26.95;61.89;100662.32;1461633;97;21155;-53
2021/09/18 09:57:42;;;;;;;30.50;12.03;;;;;;;26.94;62.02;100655.28;1457610;97;21239;-50
2021/09/18 10:00:13;;;;;;;39.13;14.50;;;;;;;26.90;62.32;100643.19;1448650;99;21175;-51
2021/09/18 10:02:42;;;;;;;29.32;13.75;;;;;;;26.90;62.32;100643.19;1449141;99;21132;-62
2021/09/18 10:05:12;;;;;;;12.82;7.47;;;;;;;26.87;62.69;100648.83;1448928;99;21098;-55
2021/09/18 10:07:40;;;;;;;16.50;9.20;;;;;;;26.74;60.35;100642.91;1448098;98;21175;-57
2021/09/18 10:10:11;;;;;;;34.58;14.10;;;;;;;26.58;61.39;100640.72;1439158;98;21135;-55
2021/09/18 10:12:39;;;;;;;21.48;9.20;;;;;;;26.47;62.41;100629.34;1424983;99;21120;-57
2021/09/18 10:15:10;;;;;;;20.27;10.32;;;;;;;26.36;62.53;100626.77;1425496;101;21111;-54
2021/09/18 10:17:41;;;;;;;17.77;7.80;;;;;;;26.30;62.79;100632.17;1424286;99;21162;-53
2021/09/18 10:25:39;;;;;;;29.10;9.78;;;;;;;26.00;61.46;100616.67;1466951;98;21126;-57
2021/09/18 10:28:10;;;;;;;14.20;7.03;;;;;;;25.90;61.66;100617.98;1499921;89;21102;-60
2021/09/18 10:30:43;;;;;;;14.63;5.90;;;;;;;25.89;61.68;100626.09;1619853;88;21078;-57
2021/09/18 10:33:36;;;;;;;17.48;6.55;;;;;;;25.86;61.82;100625.05;1657168;86;21025;-57
2021/09/18 10:36:10;;;;;;;12.18;6.70;;;;;;;25.85;61.99;100625.52;1649708;86;21082;-59
2021/09/18 10:38:48;;;;;;;15.35;9.05;;;;;;;25.87;62.45;100626.72;1656361;86;20998;-62
2021/09/18 10:41:24;;;;;;;19.32;9.90;;;;;;;25.90;63.15;100624.65;1645504;83;21041;-55
2021/09/18 10:43:57;;;;;;;16.82;9.68;;;;;;;25.98;63.76;100623.48;1710069;83;21065;-58
2021/09/18 10:46:51;;;;;;;23.05;10.68;;;;;;;26.07;64.18;100620.51;1716929;83;21049;-62
2021/09/18 10:49:40;;;;;;;22.52;10.75;;;;;;;26.15;64.59;100616.19;1708713;83;21069;-63
2021/09/18 10:52:28;;;;;;;25.55;10.95;;;;;;;26.23;64.84;100619.05;1710844;83;21070;-62
2021/09/18 10:55:10;;;;;;;19.00;10.65;;;;;;;26.37;65.04;100620.47;1701187;83;21045;-62
2021/09/18 10:57:48;;;;;;;24.00;11.55;;;;;;;26.48;65.14;100615.03;1711619;83;21037;-60
2021/09/18 11:00:33;;;;;;;24.25;12.53;;;;;;;26.67;65.06;100621.70;1709267;84;21581;-64
2021/09/18 11:03:01;;;;;;;28.67;13.05;;;;;;;26.67;65.06;100621.70;1705991;84;21034;-58
2021/09/18 11:05:41;;;;;;;31.65;13.55;;;;;;;26.80;64.81;100619.66;1705427;84;20978;-60
2021/09/18 11:08:18;;;;;;;;;;;;;;;26.86;64.83;100617.76;1707041;84;21042;-58
2021/09/18 11:10:57;;;;;;;35.75;14.05;;;;;;;26.93;64.78;100615.38;1709557;84;20405;-58
2021/09/18 11:13:34;;;;;;;;;;;;;;;26.97;64.65;100616.78;1706013;84;21045;-56
2021/09/18 11:16:10;;;;;;;33.63;13.48;;;;;;;26.99;64.55;100606.31;1608781;88;20112;-59
2021/09/18 11:18:42;;;;;;;26.65;13.48;;;;;;;27.00;64.52;100603.98;1600356;89;21068;-59
2021/09/18 11:21:30;;;;;;;19.70;11.97;;;;;;;27.02;64.52;100606.02;1558100;91;21072;-56
2021/09/18 11:24:04;;;;;;;22.87;12.95;;;;;;;27.02;64.53;100606.50;1575458;91;21061;-60
2021/09/18 11:26:45;;;;;;;21.40;11.73;;;;;;;27.05;64.83;100603.08;1503120;95;21070;-63
2021/09/18 11:29:23;;;;;;;27.53;11.83;;;;;;;27.05;64.83;100603.08;1477667;95;21081;-52
2021/09/18 11:32:12;;;;;;;22.40;11.73;;;;;;;27.10;64.59;100607.48;1493142;95;21086;-55
2021/09/18 11:34:48;;;;;;;24.60;11.63;;;;;;;27.12;64.26;100610.85;1496612;95;21158;-58